Time;durP1;ratioP1;P1;durP2;ratioP2;P2;SDS_P1;SDS_P2;PMS_P1;PMS_P2;Temp;Humidity;BMP_temperature;BMP_pressure;BME280_temperature;BME280_humidity;BME280_pressure;Samples;Min_cycle;Max_cycle;Signal;HPM_P1;HPM_P2
2020/12/30 00:01:30;;;;;;;2.23;2.00;;;3.40;99.90;;;;;;5031707;28;20202;-77
2020/12/30 00:03:55;;;;;;;3.50;2.43;;;3.40;99.90;;;;;;5030318;28;20230;-78
2020/12/30 00:06:21;;;;;;;1.97;1.87;;;3.40;99.90;;;;;;5029333;28;20182;-78
2020/12/30 00:08:47;;;;;;;2.70;2.30;;;3.50;99.90;;;;;;5036271;28;20188;-78
2020/12/30 00:11:15;;;;;;;3.33;2.40;;;3.40;99.90;;;;;;5034691;28;20658;-78
2020/12/30 00:13:40;;;;;;;1.93;1.83;;;3.40;99.90;;;;;;5032146;28;20499;-78
2020/12/30 00:16:06;;;;;;;4.33;2.63;;;3.30;99.90;;;;;;5030229;28;20472;-77
2020/12/30 00:18:32;;;;;;;2.70;1.63;;;3.30;99.90;;;;;;5031675;28;20206;-77
2020/12/30 00:20:57;;;;;;;2.17;1.83;;;3.30;99.90;;;;;;5031914;28;20470;-78
2020/12/30 00:23:23;;;;;;;1.60;1.50;;;3.30;99.90;;;;;;5031494;28;20199;-78
2020/12/30 00:25:50;;;;;;;2.17;2.00;;;3.20;99.90;;;;;;5036035;28;20600;-78
2020/12/30 00:28:15;;;;;;;1.60;1.50;;;3.30;99.90;;;;;;5032788;28;20433;-78
2020/12/30 00:30:41;;;;;;;2.70;1.60;;;3.20;99.90;;;;;;5031775;28;20445;-78
2020/12/30 00:33:06;;;;;;;1.50;1.40;;;3.20;99.90;;;;;;5029595;28;20203;-79
2020/12/30 00:35:32;;;;;;;1.27;1.20;;;3.20;99.90;;;;;;5032967;28;20694;-78
2020/12/30 00:37:57;;;;;;;4.13;1.63;;;3.20;99.90;;;;;;5032598;28;20196;-79
2020/12/30 00:40:23;;;;;;;1.80;1.70;;;3.20;99.90;;;;;;5046153;28;20486;-78
2020/12/30 00:42:48;;;;;;;2.93;1.83;;;3.20;99.90;;;;;;5036901;28;20473;-79
2020/12/30 00:45:14;;;;;;;2.00;1.50;;;3.20;99.90;;;;;;5049853;28;20535;-79
2020/12/30 00:47:39;;;;;;;1.30;1.20;;;3.30;99.90;;;;;;5046587;28;20173;-80
2020/12/30 00:50:06;;;;;;;5.10;1.20;;;3.40;99.90;;;;;;5043375;28;20261;-79
2020/12/30 00:52:31;;;;;;;1.10;1.10;;;3.40;99.90;;;;;;5045655;28;20704;-79
2020/12/30 00:54:57;;;;;;;1.07;0.97;;;3.50;99.90;;;;;;5043992;28;20430;-80
2020/12/30 00:57:22;;;;;;;2.03;1.80;;;3.50;99.90;;;;;;5035386;28;20168;-79
2020/12/30 00:59:48;;;;;;;1.20;1.20;;;3.50;99.90;;;;;;5043710;28;20264;-80
2020/12/30 01:02:13;;;;;;;1.30;1.20;;;3.50;99.90;;;;;;5038877;28;20268;-79
2020/12/30 01:04:39;;;;;;;1.30;1.07;;;3.50;99.90;;;;;;5034691;28;20171;-79
2020/12/30 01:07:04;;;;;;;4.57;1.10;;;3.50;99.90;;;;;;5038821;28;20175;-80
2020/12/30 01:09:30;;;;;;;1.50;1.40;;;3.50;99.90;;;;;;5050537;28;20194;-79
2020/12/30 01:12:00;;;;;;;2.63;1.30;;;3.50;99.90;;;;;;5039636;28;20231;-79
2020/12/30 01:14:26;;;;;;;1.70;1.57;;;3.50;99.90;;;;;;5038944;28;20218;-80
2020/12/30 01:16:53;;;;;;;1.13;1.00;;;3.50;99.90;;;;;;5034331;28;20473;-79
2020/12/30 01:19:22;;;;;;;2.63;1.13;;;3.50;99.90;;;;;;5040560;28;20203;-80
2020/12/30 01:21:48;;;;;;;1.30;1.20;;;3.50;99.90;;;;;;5040787;28;20462;-79
2020/12/30 01:24:14;;;;;;;1.80;1.30;;;3.50;99.90;;;;;;5042346;28;20422;-80
2020/12/30 01:26:42;;;;;;;2.17;2.07;;;3.50;99.90;;;;;;5046707;28;20421;-79
2020/12/30 01:29:08;;;;;;;1.10;1.00;;;3.50;99.90;;;;;;5046592;28;20416;-80
2020/12/30 01:31:35;;;;;;;1.43;1.07;;;3.50;99.90;;;;;;5045516;28;20475;-79
2020/12/30 01:34:02;;;;;;;1.87;1.40;;;3.50;99.90;;;;;;5055445;28;20250;-80
2020/12/30 01:36:28;;;;;;;2.40;1.20;;;3.50;99.90;;;;;;5061729;28;20421;-79
2020/12/30 01:38:55;;;;;;;1.03;1.00;;;3.50;99.90;;;;;;5066197;28;20432;-80
2020/12/30 01:41:21;;;;;;;1.60;1.50;;;3.60;99.90;;;;;;5054145;28;20591;-80
2020/12/30 01:44:03;;;;;;;1.83;1.70;;;3.50;99.90;;;;;;5052949;28;20430;-80
2020/12/30 01:46:35;;;;;;;1.50;1.40;;;3.50;99.90;;;;;;5037983;28;20983;-80
2020/12/30 01:49:06;;;;;;;1.47;1.37;;;3.50;99.90;;;;;;5042792;28;20468;-80
2020/12/30 01:51:32;;;;;;;4.30;2.03;;;3.50;99.90;;;;;;5038730;28;20948;-79
2020/12/30 01:53:59;;;;;;;2.10;1.57;;;3.50;99.90;;;;;;5038779;28;20432;-79
2020/12/30 01:56:29;;;;;;;1.60;1.50;;;3.50;99.90;;;;;;5044653;28;20864;-80
2020/12/30 01:58:55;;;;;;;1.70;1.60;;;3.50;99.90;;;;;;5048017;28;20429;-80
2020/12/30 02:01:25;;;;;;;2.20;1.47;;;3.50;99.90;;;;;;5050478;28;20835;-79
2020/12/30 02:03:55;;;;;;;2.70;1.63;;;3.50;99.90;;;;;;5046634;28;20298;-80
2020/12/30 02:06:20;;;;;;;1.93;1.83;;;3.50;99.90;;;;;;5047937;28;20433;-80
2020/12/30 02:08:47;;;;;;;1.47;1.37;;;3.50;99.90;;;;;;5051135;28;20426;-80
2020/12/30 02:11:13;;;;;;;1.10;1.00;;;3.50;99.90;;;;;;5045990;28;20314;-79
2020/12/30 02:13:38;;;;;;;1.60;1.50;;;3.60;99.90;;;;;;5043598;28;20898;-80
2020/12/30 02:16:04;;;;;;;3.30;1.33;;;3.60;99.90;;;;;;5049929;28;20188;-80
2020/12/30 02:18:29;;;;;;;2.53;1.47;;;3.60;99.90;;;;;;5058592;28;20211;-80
2020/12/30 02:20:55;;;;;;;1.40;1.30;;;3.70;99.90;;;;;;5045413;28;20217;-79
2020/12/30 02:23:21;;;;;;;2.40;1.70;;;3.70;99.90;;;;;;5046221;28;20198;-80
2020/12/30 02:25:47;;;;;;;2.00;1.80;;;3.60;99.90;;;;;;5069621;28;20598;-79
2020/12/30 02:28:12;;;;;;;1.77;1.63;;;3.70;99.90;;;;;;5038417;28;20430;-79
2020/12/30 02:30:38;;;;;;;1.70;1.60;;;3.60;99.90;;;;;;5045934;28;20195;-79
2020/12/30 02:33:07;;;;;;;1.67;1.57;;;3.60;99.90;;;;;;5042837;28;20660;-79
2020/12/30 02:35:33;;;;;;;1.43;1.30;;;3.60;99.90;;;;;;5043751;28;20320;-80
2020/12/30 02:37:58;;;;;;;1.60;1.50;;;3.60;99.90;;;;;;5043115;28;20461;-79
2020/12/30 02:40:24;;;;;;;1.30;1.00;;;3.60;99.90;;;;;;5046472;28;20195;-79
2020/12/30 02:42:51;;;;;;;1.07;1.07;;;3.60;99.90;;;;;;5031021;28;20213;-79
2020/12/30 02:45:18;;;;;;;1.93;1.03;;;3.60;99.90;;;;;;5015963;28;20250;-79
2020/12/30 02:47:44;;;;;;;1.10;1.10;;;3.60;99.90;;;;;;5038037;28;20441;-79
2020/12/30 02:50:09;;;;;;;1.57;1.00;;;3.60;99.90;;;;;;5048267;28;20846;-79
2020/12/30 02:52:35;;;;;;;1.10;1.03;;;3.60;99.90;;;;;;5043243;28;20204;-80
2020/12/30 02:55:00;;;;;;;1.30;0.90;;;3.60;99.90;;;;;;5045015;28;20202;-79
2020/12/30 02:57:26;;;;;;;0.87;0.77;;;3.60;99.90;;;;;;5045161;28;20186;-79
2020/12/30 02:59:57;;;;;;;1.37;1.00;;;3.60;99.90;;;;;;5048912;28;20186;-80
2020/12/30 03:02:26;;;;;;;2.20;0.80;;;3.70;99.90;;;;;;5035112;28;20206;-80
2020/12/30 03:04:53;;;;;;;7.83;1.00;;;3.80;99.90;;;;;;5040660;28;20414;-78
2020/12/30 03:07:19;;;;;;;0.90;0.90;;;3.80;99.90;;;;;;5047224;28;20433;-79
2020/12/30 03:09:44;;;;;;;1.43;1.20;;;3.80;99.90;;;;;;5046884;28;20421;-79
2020/12/30 03:12:10;;;;;;;4.17;1.10;;;3.80;99.90;;;;;;5043698;28;20478;-80
2020/12/30 03:14:35;;;;;;;1.00;0.83;;;3.80;99.90;;;;;;5044172;28;20219;-80
2020/12/30 03:17:01;;;;;;;1.73;1.07;;;3.80;99.90;;;;;;5049172;28;20198;-80
2020/12/30 03:19:26;;;;;;;1.93;1.00;;;3.90;99.90;;;;;;5048729;28;20557;-80
2020/12/30 03:21:56;;;;;;;0.70;0.70;;;3.90;99.90;;;;;;5044485;28;20210;-79
2020/12/30 03:24:22;;;;;;;0.90;0.60;;;3.90;99.90;;;;;;5055197;28;20186;-80
2020/12/30 03:26:48;;;;;;;1.20;0.77;;;3.80;99.90;;;;;;5065805;28;20421;-80
2020/12/30 03:29:14;;;;;;;1.17;0.90;;;3.90;99.90;;;;;;5036526;28;20418;-79
2020/12/30 03:31:39;;;;;;;0.90;0.90;;;3.90;99.90;;;;;;5043522;28;20422;-79
2020/12/30 03:34:05;;;;;;;1.17;1.07;;;3.90;99.90;;;;;;5048386;28;20183;-80
2020/12/30 03:36:31;;;;;;;0.60;0.50;;;3.90;99.90;;;;;;5042600;28;20516;-79
2020/12/30 03:38:56;;;;;;;0.80;0.80;;;4.00;99.90;;;;;;5045684;28;20408;-80
2020/12/30 03:41:22;;;;;;;0.70;0.70;;;4.00;99.90;;;;;;5044087;28;20233;-80
2020/12/30 03:43:47;;;;;;;1.23;0.70;;;4.10;99.90;;;;;;5045862;28;20191;-80
2020/12/30 03:46:13;;;;;;;1.20;1.13;;;4.10;99.90;;;;;;5046645;28;20231;-79
2020/12/30 03:48:38;;;;;;;1.00;0.90;;;4.00;99.90;;;;;;5044280;28;20544;-80
2020/12/30 03:51:04;;;;;;;0.90;0.90;;;4.00;99.90;;;;;;5043796;28;20175;-80
2020/12/30 03:53:29;;;;;;;2.40;1.10;;;4.00;99.90;;;;;;5038089;28;20233;-79
2020/12/30 03:55:55;;;;;;;0.70;0.70;;;3.90;99.90;;;;;;5037927;28;20475;-79
2020/12/30 03:58:20;;;;;;;3.63;0.87;;;3.90;99.90;;;;;;5047912;28;20193;-79
2020/12/30 04:00:46;;;;;;;3.67;0.93;;;3.80;99.90;;;;;;5042798;28;20334;-80
2020/12/30 04:03:12;;;;;;;2.23;1.07;;;3.80;99.90;;;;;;5046996;28;20194;-80
2020/12/30 04:05:38;;;;;;;6.93;1.30;;;3.80;99.90;;;;;;5043340;28;20201;-80
2020/12/30 04:08:03;;;;;;;4.10;0.90;;;3.80;99.90;;;;;;5046745;28;20451;-80
2020/12/30 04:10:29;;;;;;;1.03;0.67;;;3.80;99.90;;;;;;5044171;28;20651;-80
2020/12/30 04:12:55;;;;;;;1.37;0.80;;;3.70;99.90;;;;;;5045697;28;20211;-79
2020/12/30 04:15:20;;;;;;;3.03;1.10;;;3.70;99.90;;;;;;5039877;28;20644;-79
2020/12/30 04:17:46;;;;;;;2.40;0.70;;;3.60;99.90;;;;;;5038381;28;20174;-80
2020/12/30 04:20:11;;;;;;;1.77;1.27;;;3.60;99.90;;;;;;5039752;28;20181;-79
2020/12/30 04:22:37;;;;;;;5.60;1.07;;;3.50;99.90;;;;;;5034117;28;20278;-78
2020/12/30 04:25:03;;;;;;;9.60;1.20;;;3.40;99.90;;;;;;5035829;28;20202;-80
2020/12/30 04:27:29;;;;;;;2.30;1.10;;;3.30;99.90;;;;;;5041538;28;20641;-80
2020/12/30 04:29:54;;;;;;;1.30;1.10;;;3.20;99.90;;;;;;5037490;28;20428;-80
2020/12/30 04:32:20;;;;;;;1.47;0.93;;;3.20;99.90;;;;;;5044067;28;20202;-80
2020/12/30 04:34:45;;;;;;;2.50;1.17;;;3.20;99.90;;;;;;5043732;28;20179;-80
2020/12/30 04:37:14;;;;;;;0.73;0.70;;;3.20;99.90;;;;;;5045213;28;20547;-79
2020/12/30 04:39:40;;;;;;;1.70;1.07;;;3.10;99.90;;;;;;5045948;28;20192;-80
2020/12/30 04:42:07;;;;;;;4.90;1.13;;;3.10;99.90;;;;;;5050337;28;20491;-80
2020/12/30 04:44:34;;;;;;;2.20;1.00;;;3.10;99.90;;;;;;5038518;28;21039;-79
2020/12/30 04:47:02;;;;;;;4.10;1.13;;;3.10;99.90;;;;;;5041760;28;20773;-79
2020/12/30 04:49:27;;;;;;;1.63;1.30;;;3.20;99.90;;;;;;5035336;28;20435;-80
2020/12/30 04:51:53;;;;;;;0.80;0.80;;;3.20;99.90;;;;;;5038669;28;20415;-79
2020/12/30 04:54:21;;;;;;;1.60;1.13;;;3.20;99.90;;;;;;5043695;28;20175;-79
2020/12/30 04:57:03;;;;;;;2.10;1.03;;;3.20;99.90;;;;;;5045403;28;20493;-79
2020/12/30 04:59:40;;;;;;;1.60;1.23;;;3.30;99.90;;;;;;5046105;28;20439;-79
2020/12/30 05:02:11;;;;;;;5.60;1.00;;;3.30;99.90;;;;;;5046500;28;20480;-79
2020/12/30 05:04:38;;;;;;;2.30;0.90;;;3.30;99.90;;;;;;5035407;28;20429;-79
2020/12/30 05:07:14;;;;;;;2.30;0.90;;;3.30;99.90;;;;;;5038011;28;20958;-79
2020/12/30 05:09:42;;;;;;;5.47;1.43;;;3.30;99.90;;;;;;5046609;28;20417;-79
2020/12/30 05:12:15;;;;;;;2.90;0.70;;;3.30;99.90;;;;;;5050057;28;20456;-79
2020/12/30 05:14:41;;;;;;;3.13;0.97;;;3.30;99.90;;;;;;5050391;28;20402;-79
2020/12/30 05:17:08;;;;;;;1.10;1.00;;;3.30;99.90;;;;;;5039912;28;20454;-79
2020/12/30 05:19:35;;;;;;;1.53;0.83;;;3.20;99.90;;;;;;5038070;28;20396;-80
2020/12/30 05:22:01;;;;;;;3.03;1.03;;;3.10;99.90;;;;;;5042248;28;20469;-79
2020/12/30 05:24:28;;;;;;;2.57;1.13;;;3.10;99.90;;;;;;5046765;28;20799;-79
2020/12/30 05:26:54;;;;;;;5.23;1.20;;;3.10;99.90;;;;;;5045493;28;20173;-78
2020/12/30 05:29:22;;;;;;;1.27;1.00;;;3.10;99.90;;;;;;5044161;28;20419;-79
2020/12/30 05:31:51;;;;;;;5.13;1.00;;;3.10;99.90;;;;;;5045262;28;20446;-79
2020/12/30 05:34:21;;;;;;;0.90;0.90;;;3.10;99.90;;;;;;5041008;28;20403;-79
2020/12/30 05:36:48;;;;;;;1.27;1.00;;;3.20;99.90;;;;;;5031159;28;20490;-79
2020/12/30 05:39:30;;;;;;;2.30;0.97;;;3.30;99.90;;;;;;5050071;28;20427;-79
2020/12/30 05:42:28;;;;;;;2.60;1.40;;;3.30;99.90;;;;;;5033790;28;20504;-79
2020/12/30 05:44:55;;;;;;;2.00;1.17;;;3.30;99.90;;;;;;5001646;28;20439;-79
2020/12/30 05:47:23;;;;;;;4.73;1.43;;;3.30;99.90;;;;;;5048488;28;20407;-78
2020/12/30 05:49:53;;;;;;;2.63;1.37;;;3.30;99.90;;;;;;5045087;28;20425;-79
2020/12/30 05:52:24;;;;;;;3.63;1.03;;;3.30;99.90;;;;;;5039065;28;20449;-79
2020/12/30 05:54:59;;;;;;;0.80;0.80;;;3.40;99.90;;;;;;5040521;28;20414;-79
2020/12/30 05:57:33;;;;;;;3.13;0.97;;;3.50;99.90;;;;;;5037892;28;20981;-78
2020/12/30 06:00:07;;;;;;;1.30;1.00;;;3.50;99.90;;;;;;5037464;28;20757;-78
2020/12/30 06:02:33;;;;;;;2.77;0.87;;;3.60;99.90;;;;;;5018119;28;20846;-79
2020/12/30 06:05:19;;;;;;;2.70;0.80;;;3.60;99.90;;;;;;5038350;28;20413;-78
2020/12/30 06:07:47;;;;;;;5.90;1.50;;;3.60;99.90;;;;;;5013709;28;20497;-79
2020/12/30 06:10:19;;;;;;;2.10;0.90;;;3.70;99.90;;;;;;5016363;28;20405;-79
2020/12/30 06:12:47;;;;;;;3.10;0.90;;;3.60;99.90;;;;;;5011506;28;20461;-78
2020/12/30 06:15:14;;;;;;;1.50;1.40;;;3.70;99.90;;;;;;5042430;28;20902;-78
2020/12/30 06:17:50;;;;;;;1.43;1.00;;;3.70;99.90;;;;;;5042442;28;20412;-78
2020/12/30 06:20:20;;;;;;;1.30;0.90;;;3.80;99.90;;;;;;5041858;28;20473;-79
2020/12/30 06:22:58;;;;;;;2.77;0.87;;;3.70;99.90;;;;;;5046403;28;20488;-78
2020/12/30 06:25:25;;;;;;;2.70;1.57;;;3.80;99.90;;;;;;5050239;28;20432;-78
2020/12/30 06:27:52;;;;;;;2.70;0.90;;;3.80;99.90;;;;;;5049162;28;20492;-79
2020/12/30 06:30:17;;;;;;;4.30;1.20;;;3.80;99.90;;;;;;5039019;28;20552;-79
2020/12/30 06:32:43;;;;;;;2.50;1.30;;;3.80;99.90;;;;;;5047052;28;20502;-79
2020/12/30 06:35:10;;;;;;;3.60;1.10;;;3.70;99.90;;;;;;5033565;28;20179;-79
2020/12/30 06:37:37;;;;;;;2.77;0.90;;;3.70;99.90;;;;;;5079050;28;20240;-79
2020/12/30 06:40:21;;;;;;;3.20;1.70;;;3.60;99.90;;;;;;5044402;28;20466;-79
2020/12/30 06:42:55;;;;;;;2.03;1.83;;;3.50;99.90;;;;;;5040444;28;20441;-79
2020/12/30 06:45:42;;;;;;;1.40;1.30;;;3.40;99.90;;;;;;5048733;28;20708;-79
2020/12/30 06:48:11;;;;;;;1.53;1.10;;;3.40;99.90;;;;;;5039154;28;20953;-78
2020/12/30 06:50:37;;;;;;;1.33;1.20;;;3.30;99.90;;;;;;5042844;28;20415;-78
2020/12/30 06:53:21;;;;;;;3.57;2.53;;;3.30;99.90;;;;;;5045147;28;20441;-78
2020/12/30 06:55:46;;;;;;;1.20;0.90;;;3.20;99.90;;;;;;5042752;28;20178;-78
2020/12/30 06:58:47;;;;;;;4.90;1.40;;;3.30;99.90;;;;;;5042274;28;20396;-78
2020/12/30 07:01:21;;;;;;;3.23;1.50;;;3.30;99.90;;;;;;5036037;28;20203;-78
2020/12/30 07:03:50;;;;;;;2.37;1.30;;;3.30;99.90;;;;;;5039552;28;20539;-78
2020/12/30 07:06:34;;;;;;;1.17;1.00;;;3.30;99.90;;;;;;5043096;28;20796;-78
2020/12/30 07:09:05;;;;;;;1.10;1.00;;;3.30;99.90;;;;;;5044298;28;20442;-78
2020/12/30 07:11:51;;;;;;;2.17;1.70;;;3.30;99.90;;;;;;5038859;28;20747;-78
2020/12/30 07:14:25;;;;;;;4.53;2.10;;;3.20;99.90;;;;;;5037251;28;20504;-78
2020/12/30 07:17:02;;;;;;;7.83;1.47;;;3.20;99.90;;;;;;5065252;28;20939;-74
2020/12/30 07:19:34;;;;;;;3.00;1.47;;;3.20;99.90;;;;;;5042273;28;20436;-75
2020/12/30 07:22:08;;;;;;;2.80;1.77;;;3.30;99.90;;;;;;5041849;28;20501;-74
2020/12/30 07:24:45;;;;;;;2.30;1.43;;;3.30;99.90;;;;;;5041470;28;20438;-74
2020/12/30 07:27:16;;;;;;;6.20;2.40;;;3.30;99.90;;;;;;5036446;28;20392;-75
2020/12/30 07:29:45;;;;;;;10.53;2.60;;;3.40;99.90;;;;;;5043759;28;20769;-75
2020/12/30 07:32:12;;;;;;;1.90;1.80;;;3.40;99.90;;;;;;5043142;28;20859;-74
2020/12/30 07:34:43;;;;;;;2.77;1.77;;;3.30;99.90;;;;;;5041397;28;20439;-75
2020/12/30 07:37:09;;;;;;;1.73;1.33;;;3.30;99.90;;;;;;5040908;28;20480;-74
2020/12/30 07:39:40;;;;;;;3.43;1.03;;;3.40;99.90;;;;;;5043717;28;20527;-74
2020/12/30 07:42:10;;;;;;;0.80;0.80;;;3.40;99.90;;;;;;5037383;28;20576;-75
2020/12/30 07:44:49;;;;;;;1.47;1.20;;;3.50;99.90;;;;;;5034034;28;20442;-75
2020/12/30 07:47:18;;;;;;;0.80;0.80;;;3.50;99.90;;;;;;5039077;28;20417;-75
2020/12/30 07:49:44;;;;;;;2.37;1.20;;;3.60;99.90;;;;;;5041421;28;20484;-74
2020/12/30 07:52:10;;;;;;;2.30;0.93;;;3.70;99.90;;;;;;5040685;28;20451;-75
2020/12/30 07:54:36;;;;;;;4.10;1.00;;;3.70;99.90;;;;;;5043561;28;20468;-74
2020/12/30 07:57:13;;;;;;;1.63;1.30;;;3.80;99.90;;;;;;5040436;28;20871;-74
2020/12/30 07:59:40;;;;;;;2.97;1.17;;;3.80;99.90;;;;;;5037589;28;20837;-74
2020/12/30 08:02:17;;;;;;;2.07;0.90;;;3.80;99.90;;;;;;5040360;28;20502;-75
2020/12/30 08:04:45;;;;;;;1.57;1.07;;;3.90;99.90;;;;;;5039280;28;20423;-74
2020/12/30 08:07:12;;;;;;;1.57;1.47;;;3.90;99.90;;;;;;5040592;28;20443;-75
2020/12/30 08:09:42;;;;;;;5.47;1.70;;;3.90;99.90;;;;;;5038370;28;20430;-75
2020/12/30 08:12:10;;;;;;;1.20;1.20;;;3.90;99.90;;;;;;5043298;28;20418;-75
2020/12/30 08:14:41;;;;;;;5.80;1.10;;;3.90;99.90;;;;;;5041396;28;20735;-74
2020/12/30 08:17:12;;;;;;;2.20;1.10;;;4.00;99.90;;;;;;5036588;28;20426;-74
2020/12/30 08:19:42;;;;;;;3.10;1.33;;;4.00;99.90;;;;;;5034688;28;20437;-74
2020/12/30 08:22:25;;;;;;;2.63;1.00;;;4.00;99.90;;;;;;5037191;28;20431;-75
2020/12/30 08:24:58;;;;;;;6.50;1.40;;;4.10;99.90;;;;;;5033599;28;20429;-75
2020/12/30 08:27:26;;;;;;;1.73;1.60;;;4.20;99.90;;;;;;5039158;28;20440;-79
2020/12/30 08:29:52;;;;;;;0.90;0.90;;;4.30;99.90;;;;;;5039268;28;20414;-76
2020/12/30 08:32:32;;;;;;;1.23;1.10;;;4.40;99.90;;;;;;5057171;28;20457;-76
2020/12/30 08:35:03;;;;;;;2.63;1.30;;;4.60;99.90;;;;;;5039501;28;20413;-76
2020/12/30 08:37:31;;;;;;;1.80;0.90;;;4.70;99.90;;;;;;5040980;28;20425;-74
2020/12/30 08:40:31;;;;;;;1.77;1.33;;;4.80;99.90;;;;;;5040254;28;20436;-74
2020/12/30 08:43:31;;;;;;;1.30;1.20;;;4.90;99.90;;;;;;5037628;28;20492;-75
2020/12/30 08:46:02;;;;;;;1.20;1.10;;;4.90;99.90;;;;;;5038125;28;20429;-75
2020/12/30 08:48:31;;;;;;;2.50;0.80;;;5.00;99.90;;;;;;5042100;28;20500;-75
2020/12/30 08:50:56;;;;;;;1.07;0.80;;;5.00;99.90;;;;;;5039927;28;20425;-75
2020/12/30 08:53:39;;;;;;;3.13;2.10;;;5.10;99.90;;;;;;5041159;28;20438;-75
2020/12/30 08:56:06;;;;;;;1.50;0.73;;;5.10;99.90;;;;;;5033458;28;20225;-75
2020/12/30 08:58:31;;;;;;;2.30;0.60;;;5.20;99.90;;;;;;5036404;28;20453;-76
2020/12/30 09:00:58;;;;;;;5.20;1.13;;;5.20;99.90;;;;;;5038019;28;20712;-75
2020/12/30 09:03:26;;;;;;;0.70;0.70;;;5.20;99.90;;;;;;5034314;28;20208;-77
2020/12/30 09:05:53;;;;;;;0.83;0.70;;;5.20;99.90;;;;;;5038132;28;20415;-75
2020/12/30 09:08:19;;;;;;;6.30;1.20;;;5.20;99.90;;;;;;5041692;28;20423;-75
2020/12/30 09:10:46;;;;;;;1.80;1.00;;;5.10;99.90;;;;;;5058054;28;20426;-76
2020/12/30 09:13:17;;;;;;;4.13;1.07;;;5.20;99.90;;;;;;5040736;28;20449;-75
2020/12/30 09:15:44;;;;;;;1.20;0.70;;;5.20;99.90;;;;;;5039254;28;20434;-76
2020/12/30 09:18:14;;;;;;;2.20;0.80;;;5.20;99.90;;;;;;5042044;28;20484;-75
2020/12/30 09:20:41;;;;;;;1.87;0.80;;;5.20;99.90;;;;;;5040396;28;20449;-75
2020/12/30 09:23:07;;;;;;;0.70;0.60;;;5.30;99.90;;;;;;5024723;28;20542;-75
2020/12/30 09:25:37;;;;;;;2.97;0.80;;;5.30;99.90;;;;;;5034198;28;20426;-75
2020/12/30 09:28:15;;;;;;;4.40;1.00;;;5.30;99.90;;;;;;5038747;28;20427;-75
2020/12/30 09:30:41;;;;;;;0.90;0.80;;;5.30;99.90;;;;;;5039725;28;20412;-76
2020/12/30 09:33:12;;;;;;;1.00;0.73;;;5.40;99.90;;;;;;5037213;28;20434;-75
2020/12/30 09:35:37;;;;;;;5.27;3.20;;;5.50;99.90;;;;;;5035742;28;20497;-74
2020/12/30 09:38:03;;;;;;;2.23;1.17;;;5.50;99.90;;;;;;5035114;28;20754;-75
2020/12/30 09:40:29;;;;;;;1.50;1.20;;;5.50;99.90;;;;;;5041103;28;20319;-75
2020/12/30 09:43:15;;;;;;;1.37;1.03;;;5.50;99.90;;;;;;5040012;28;20636;-75
2020/12/30 09:45:40;;;;;;;0.80;0.80;;;5.50;99.90;;;;;;5033740;28;20170;-75
2020/12/30 09:48:10;;;;;;;1.57;0.80;;;5.50;99.90;;;;;;5036677;28;20472;-77
2020/12/30 09:50:35;;;;;;;3.30;1.17;;;5.50;99.90;;;;;;5033156;28;20184;-76
2020/12/30 09:53:01;;;;;;;2.17;1.00;;;5.50;99.90;;;;;;5037819;28;20454;-76
2020/12/30 09:55:26;;;;;;;1.07;0.70;;;5.40;99.90;;;;;;5039973;28;20756;-77
2020/12/30 09:57:52;;;;;;;1.97;0.90;;;5.40;99.90;;;;;;5044978;28;20189;-76
2020/12/30 10:00:17;;;;;;;1.00;0.90;;;5.40;99.90;;;;;;5045256;28;20669;-75
2020/12/30 10:02:43;;;;;;;1.93;1.07;;;5.40;99.90;;;;;;5042015;28;20213;-77
2020/12/30 10:05:08;;;;;;;2.50;0.90;;;5.40;99.90;;;;;;5046420;28;20603;-76
2020/12/30 10:07:34;;;;;;;4.37;1.10;;;5.40;99.90;;;;;;5045062;28;20608;-75
2020/12/30 10:09:59;;;;;;;1.47;1.00;;;5.40;99.90;;;;;;5043488;28;20178;-76
2020/12/30 10:12:25;;;;;;;2.27;1.23;;;5.40;99.90;;;;;;5042176;28;20714;-75
2020/12/30 10:14:51;;;;;;;2.50;0.83;;;5.40;99.90;;;;;;5041897;28;20655;-76
2020/12/30 10:17:16;;;;;;;1.23;1.00;;;5.40;99.90;;;;;;5040082;28;20195;-76
2020/12/30 10:19:42;;;;;;;1.20;1.00;;;5.40;99.90;;;;;;5036519;28;20183;-78
2020/12/30 10:22:12;;;;;;;1.00;0.57;;;5.40;99.90;;;;;;5041525;28;20207;-76
2020/12/30 10:24:44;;;;;;;1.07;0.97;;;5.40;99.90;;;;;;5040403;28;20213;-76
2020/12/30 10:27:11;;;;;;;2.90;0.87;;;5.40;99.90;;;;;;5033062;28;20838;-76
2020/12/30 10:29:36;;;;;;;7.63;0.80;;;5.40;99.90;;;;;;5040867;28;20440;-75
2020/12/30 10:32:02;;;;;;;2.20;0.90;;;5.50;99.90;;;;;;5045350;28;20450;-76
2020/12/30 10:34:27;;;;;;;1.10;0.77;;;5.50;99.90;;;;;;5038076;28;20185;-75
2020/12/30 10:36:53;;;;;;;1.43;0.70;;;5.50;99.90;;;;;;5040953;28;20216;-77
2020/12/30 10:39:18;;;;;;;1.30;0.90;;;5.50;99.90;;;;;;5040354;28;20508;-75
2020/12/30 10:41:44;;;;;;;0.70;0.70;;;5.50;99.90;;;;;;5043091;28;20234;-77
2020/12/30 10:44:09;;;;;;;0.87;0.70;;;5.50;99.90;;;;;;5041232;28;20654;-79
2020/12/30 10:46:35;;;;;;;2.73;0.70;;;5.60;99.90;;;;;;5044253;28;20728;-77
2020/12/30 10:49:01;;;;;;;2.93;0.70;;;5.60;99.90;;;;;;5037769;28;20179;-76
2020/12/30 10:51:27;;;;;;;0.70;0.70;;;5.60;99.90;;;;;;5041281;28;20609;-76
2020/12/30 10:53:52;;;;;;;2.57;0.90;;;5.70;99.90;;;;;;5038267;28;20480;-78
2020/12/30 10:56:18;;;;;;;2.03;0.70;;;5.70;99.90;;;;;;5039672;28;20174;-76
2020/12/30 10:58:43;;;;;;;1.73;0.70;;;5.60;99.90;;;;;;5039782;28;20192;-76
2020/12/30 11:01:10;;;;;;;1.67;0.70;;;5.50;99.90;;;;;;5041155;28;20206;-77
2020/12/30 11:03:36;;;;;;;1.00;0.60;;;5.60;99.90;;;;;;5043423;28;20216;-76
2020/12/30 11:06:02;;;;;;;2.20;0.90;;;5.60;99.90;;;;;;5040570;28;20415;-78
2020/12/30 11:08:28;;;;;;;1.27;0.90;;;5.60;99.90;;;;;;5039913;28;20434;-76
2020/12/30 11:11:02;;;;;;;2.20;0.83;;;5.60;99.90;;;;;;5041608;28;20446;-77
2020/12/30 11:13:28;;;;;;;1.17;0.80;;;5.60;99.90;;;;;;5043810;28;20500;-76
2020/12/30 11:15:54;;;;;;;1.70;0.87;;;5.70;99.90;;;;;;5043638;28;20429;-75
2020/12/30 11:18:20;;;;;;;1.17;0.80;;;5.70;99.90;;;;;;5038554;28;20503;-75
2020/12/30 11:20:46;;;;;;;6.47;0.90;;;5.70;99.90;;;;;;5044146;28;20287;-76
2020/12/30 11:23:12;;;;;;;3.80;0.80;;;5.60;99.90;;;;;;5044643;28;20446;-76
2020/12/30 11:25:40;;;;;;;1.10;0.63;;;5.70;99.90;;;;;;5039095;28;20183;-76
2020/12/30 11:28:05;;;;;;;1.20;0.70;;;5.70;99.90;;;;;;5037322;28;20424;-77
2020/12/30 11:30:31;;;;;;;0.70;0.70;;;5.70;99.90;;;;;;5042349;28;20486;-76
2020/12/30 11:32:57;;;;;;;1.00;0.80;;;5.70;99.90;;;;;;5043040;28;20220;-76
2020/12/30 11:35:23;;;;;;;1.23;1.00;;;5.80;99.90;;;;;;5033810;28;20177;-75
2020/12/30 11:37:48;;;;;;;0.90;0.77;;;5.80;99.90;;;;;;5039674;28;20181;-75
2020/12/30 11:40:14;;;;;;;3.50;0.67;;;5.90;99.90;;;;;;5042632;28;20430;-75
2020/12/30 11:42:40;;;;;;;0.80;0.80;;;6.00;99.90;;;;;;5040574;28;20697;-75
2020/12/30 11:45:07;;;;;;;2.67;0.80;;;6.00;99.90;;;;;;5040570;28;20268;-75
2020/12/30 11:47:32;;;;;;;2.40;0.77;;;6.00;99.90;;;;;;5040742;28;20416;-74
2020/12/30 11:49:58;;;;;;;1.00;0.80;;;6.00;99.90;;;;;;5043035;28;20422;-74
2020/12/30 11:52:23;;;;;;;0.57;0.57;;;6.10;99.90;;;;;;5041580;28;20569;-75
2020/12/30 11:54:49;;;;;;;2.10;1.33;;;6.20;99.90;;;;;;5040967;28;20181;-75
2020/12/30 11:57:14;;;;;;;2.70;1.00;;;6.20;99.90;;;;;;5041356;28;20559;-75
2020/12/30 11:59:40;;;;;;;0.90;0.83;;;6.20;99.90;;;;;;5040297;28;20192;-74
2020/12/30 12:02:06;;;;;;;1.10;0.93;;;6.30;99.90;;;;;;5043852;28;20215;-74
2020/12/30 12:04:32;;;;;;;1.37;0.80;;;6.30;99.90;;;;;;5035651;28;20180;-74
2020/12/30 12:06:59;;;;;;;0.70;0.70;;;6.30;99.90;;;;;;5040067;28;20191;-74
2020/12/30 12:09:25;;;;;;;0.70;0.63;;;6.40;99.90;;;;;;5037595;28;20439;-74
2020/12/30 12:11:50;;;;;;;1.07;0.90;;;6.40;99.90;;;;;;5038726;28;20518;-74
2020/12/30 12:14:16;;;;;;;1.00;0.63;;;6.30;99.90;;;;;;5035940;28;20189;-73
2020/12/30 12:16:42;;;;;;;0.70;0.70;;;6.20;99.90;;;;;;5040032;28;20275;-74
2020/12/30 12:19:11;;;;;;;0.67;0.60;;;6.10;99.90;;;;;;5057257;28;20559;-76
2020/12/30 12:21:39;;;;;;;0.70;0.70;;;6.10;99.90;;;;;;5067502;28;20207;-74
2020/12/30 12:24:05;;;;;;;0.60;0.60;;;6.10;99.90;;;;;;5028169;28;20935;-73
2020/12/30 12:26:31;;;;;;;3.43;0.90;;;6.10;99.90;;;;;;5038760;28;20476;-73
2020/12/30 12:28:59;;;;;;;1.27;1.20;;;6.10;99.90;;;;;;5039190;28;20172;-74
2020/12/30 12:31:25;;;;;;;1.80;1.13;;;6.10;99.90;;;;;;5037751;28;20432;-73
2020/12/30 12:33:50;;;;;;;2.40;0.87;;;6.20;99.90;;;;;;5034169;28;20456;-74
2020/12/30 12:36:17;;;;;;;1.50;0.80;;;6.20;99.90;;;;;;5038907;28;20186;-73
2020/12/30 12:38:43;;;;;;;1.13;0.90;;;6.20;99.90;;;;;;5038206;28;20196;-76
2020/12/30 12:41:09;;;;;;;0.90;0.90;;;6.20;99.90;;;;;;5041954;28;20555;-75
2020/12/30 12:43:35;;;;;;;2.07;1.07;;;6.10;99.90;;;;;;5043533;28;20432;-76
2020/12/30 12:46:00;;;;;;;2.30;1.20;;;6.20;99.90;;;;;;5042301;28;20408;-74
2020/12/30 12:48:26;;;;;;;1.13;0.90;;;6.20;99.90;;;;;;5043066;28;20187;-74
2020/12/30 12:50:51;;;;;;;0.93;0.80;;;6.30;99.90;;;;;;5039632;28;20243;-76
2020/12/30 12:53:17;;;;;;;2.93;0.97;;;6.30;99.90;;;;;;5030961;28;20346;-74
2020/12/30 12:55:43;;;;;;;1.40;1.30;;;6.30;99.90;;;;;;5024385;28;20283;-75
2020/12/30 12:58:08;;;;;;;2.97;1.40;;;6.30;99.90;;;;;;5023586;28;20554;-74
2020/12/30 13:00:34;;;;;;;4.30;1.47;;;6.30;99.90;;;;;;5022486;28;20724;-75
2020/12/30 13:02:59;;;;;;;1.90;1.20;;;6.40;99.90;;;;;;5022074;28;20194;-73